مكناس, المغرب

05:11 AM WEST on أعس×س 30, 2014 (GMT +0100)
Saiss | Change Station
CLOSE
Current Station
Airport
Location: Fes-Sais,
Elevation: 1900 ft
Nearby Weather Stations

Elev 1900 ft 33.93 °N, 4.97 °W | Updated 11 minutes ago

Scattered Clouds
غيوم متفرقة
70 °F
Feels Like 70 °F
N
8
ريح متغير ريح from جنوب

هذا اليوم
High -- | Low -- °F
--% Chance of Precip.
Yesterday
High -- | Low -- °F
Precip. -- في
6:54 AM 7:50 PM
الهلال الأول, 19% visible
الضغط 30.04 في
وضوح الرؤية 6.2 أميال
سحابات غيوم متفرقة 3300 ft
نقطة الندى 46 °F
الرطوبة 43%
Rainfall 0.00 في
عمق الثلج Not available.
الأشعة فوق البنفسجية 0 out of 12
Pollen Not available.
جودة الهواء Not available.
Flu Activity Not available.
METAR GMFF 300400Z 18007KT 9999 SCT033 21/08 Q1017 NOSIG

More Conditions Fewer Conditions

الضغط 30.04 في
وضوح الرؤية 6.2 أميال
سحابات غيوم متفرقة 3300 ft
نقطة الندى 46 °F
الرطوبة 43%
Rainfall 0.00 في
عمق الثلج Not available.
الأشعة فوق البنفسجية 0 out of 12
Pollen Not available.
جودة الهواء Not available.
Flu Activity Not available.
METAR GMFF 300400Z 18007KT 9999 SCT033 21/08 Q1017 NOSIG

More Conditions Fewer Conditions

10-Day Weather Forecast

Almanac

علم الفلك

Aug. 30, 2014 Rise Set
Actual Time 6:54 AM WEST 7:50 PM WEST
Civil Twilight 6:28 AM WEST 8:16 PM WEST
Nautical Twilight 5:58 AM WEST 8:46 PM WEST
Astronomical Twilight 5:27 AM WEST 9:17 PM WEST
قمر 11:13 AM WEST 10:31 PM WEST
Length Of Visible Light 13h 47m
طول الیوم
12h 56m
Tomorrow will be 1m 59s shorter.
الهلال الأول, 19% of the Moon is Illuminated
هذا اليوم
الهلال الأول
Sep 2
الربع الاول
Sep 8
بدر
Sep 15
الربع الآخر
Sep 24
New

Yesterday's Extremes

Country Highs Country Lows

Community

WunderPhotos

Upload Photos

1,748,448 photos uploaded!

Nearby

جودة الهواء

Not available.

عمق الثلج

Not available.

Earthquake Activity

City Distance Mag. Time & Date
No recent earthquake activity has been reported nearby.
Minimum magnitude displayed is 2.5.

Coastal Water Temperatures

مكان درجات الحرارة
No Stations Reporting

Nearby Weather Stations